Time;durP1;ratioP1;P1;durP2;ratioP2;P2;SDS_P1;SDS_P2;PMS_P1;PMS_P2;Temp;Humidity;BMP_temperature;BMP_pressure;BME280_temperature;BME280_humidity;BME280_pressure;Samples;Min_cycle;Max_cycle;Signal;HPM_P1;HPM_P2
2021/04/22 00:01:21;;;;;;;20.40;14.77;;;9.10;99.90;;;;;;5012191;28;20030;-74
2021/04/22 00:03:47;;;;;;;20.52;15.50;;;9.10;99.90;;;;;;5012131;28;20049;-74
2021/04/22 00:06:12;;;;;;;16.35;14.50;;;9.10;99.90;;;;;;5012188;28;20025;-73
2021/04/22 00:08:38;;;;;;;17.98;16.05;;;9.20;99.90;;;;;;5012096;28;20026;-73
2021/04/22 00:11:04;;;;;;;17.73;15.73;;;9.30;99.90;;;;;;5012154;28;20098;-74
2021/04/22 00:13:30;;;;;;;17.80;15.80;;;9.30;99.90;;;;;;5011948;28;20026;-73
2021/04/22 00:15:56;;;;;;;22.77;16.90;;;9.30;99.90;;;;;;5012133;28;20049;-74
2021/04/22 00:18:21;;;;;;;19.17;16.13;;;9.40;99.90;;;;;;5012172;28;20057;-74
2021/04/22 00:20:48;;;;;;;19.90;17.00;;;9.40;99.90;;;;;;5012296;28;20392;-72
2021/04/22 00:23:15;;;;;;;25.15;16.92;;;9.40;99.90;;;;;;5011862;28;20018;-73
2021/04/22 00:25:41;;;;;;;24.60;17.45;;;9.40;99.90;;;;;;5011981;28;20495;-73
2021/04/22 00:28:08;;;;;;;23.88;16.92;;;9.40;99.90;;;;;;5012018;28;20030;-73
2021/04/22 00:30:34;;;;;;;18.50;15.75;;;9.40;99.90;;;;;;5010720;28;20567;-73
2021/04/22 00:33:05;;;;;;;21.83;16.48;;;9.50;99.90;;;;;;5011993;28;20054;-73
2021/04/22 00:35:31;;;;;;;21.60;17.85;;;9.50;99.90;;;;;;5010673;28;20435;-73
2021/04/22 00:37:56;;;;;;;22.55;17.83;;;9.40;99.90;;;;;;5011685;28;20061;-74
2021/04/22 00:40:25;;;;;;;24.23;17.65;;;9.30;99.90;;;;;;5010436;28;20032;-74
2021/04/22 00:42:51;;;;;;;22.33;18.05;;;9.30;99.90;;;;;;5011693;28;20034;-73
2021/04/22 00:45:18;;;;;;;21.50;17.13;;;9.30;99.90;;;;;;5011577;28;20049;-74
2021/04/22 00:47:44;;;;;;;20.55;17.63;;;9.30;99.90;;;;;;5011895;28;20014;-73
2021/04/22 00:50:23;;;;;;;20.05;16.60;;;9.30;99.90;;;;;;5011768;28;20383;-72
2021/04/22 00:52:52;;;;;;;21.17;17.40;;;9.30;99.90;;;;;;5011536;28;20018;-73
2021/04/22 00:55:18;;;;;;;20.40;17.65;;;9.10;99.90;;;;;;5012064;28;20500;-73
2021/04/22 00:57:43;;;;;;;22.92;17.45;;;9.10;99.90;;;;;;5015716;28;20085;-72
2021/04/22 01:00:10;;;;;;;20.83;17.38;;;9.20;99.90;;;;;;5015494;28;20029;-73
2021/04/22 01:02:38;;;;;;;20.20;16.35;;;9.20;99.90;;;;;;5014121;28;20026;-72
2021/04/22 01:05:15;;;;;;;23.00;16.13;;;9.20;99.90;;;;;;5015462;28;20026;-72
2021/04/22 01:07:41;;;;;;;21.63;16.80;;;9.20;99.90;;;;;;5009071;28;20640;-73
2021/04/22 01:10:07;;;;;;;23.17;17.27;;;9.10;99.90;;;;;;5007319;28;20030;-73
2021/04/22 01:12:33;;;;;;;18.05;15.57;;;9.10;99.90;;;;;;5015314;28;20059;-73
2021/04/22 01:14:59;;;;;;;20.75;15.02;;;9.00;99.90;;;;;;5005903;28;20479;-74
2021/04/22 01:17:25;;;;;;;20.98;16.20;;;9.00;99.90;;;;;;5015173;28;20041;-74
2021/04/22 01:19:50;;;;;;;23.08;16.38;;;9.10;99.90;;;;;;5015405;28;20139;-73
2021/04/22 01:22:16;;;;;;;24.10;18.05;;;9.00;99.90;;;;;;5014926;28;20033;-74
2021/04/22 01:24:42;;;;;;;21.48;16.58;;;9.00;99.90;;;;;;5015074;28;20045;-74
2021/04/22 01:27:08;;;;;;;23.27;15.38;;;9.00;99.90;;;;;;5015125;28;20022;-74
2021/04/22 01:29:33;;;;;;;21.60;16.13;;;9.10;99.90;;;;;;5015154;28;20018;-74
2021/04/22 01:31:59;;;;;;;18.98;16.52;;;9.00;99.90;;;;;;5015013;28;20102;-73
2021/04/22 01:34:24;;;;;;;21.00;16.58;;;8.80;99.90;;;;;;5013463;28;20063;-74
2021/04/22 01:36:50;;;;;;;20.55;16.00;;;8.80;99.90;;;;;;5014987;28;20065;-72
2021/04/22 01:39:15;;;;;;;23.63;17.35;;;8.70;99.90;;;;;;5005328;28;20026;-72
2021/04/22 01:41:41;;;;;;;20.48;15.05;;;8.80;99.90;;;;;;5014622;28;20026;-71
2021/04/22 01:44:08;;;;;;;21.42;16.02;;;8.80;99.90;;;;;;5014824;28;20101;-73
2021/04/22 01:46:34;;;;;;;18.98;15.30;;;8.90;99.90;;;;;;5014795;28;20057;-72
2021/04/22 01:49:00;;;;;;;23.55;15.55;;;8.90;99.90;;;;;;5014910;28;20096;-73
2021/04/22 01:51:26;;;;;;;20.95;14.63;;;8.80;99.90;;;;;;5014539;28;20475;-73
2021/04/22 01:53:52;;;;;;;22.25;15.00;;;8.60;99.90;;;;;;5014376;28;20104;-73
2021/04/22 01:56:18;;;;;;;19.55;15.50;;;8.60;99.90;;;;;;5013308;28;20108;-72
2021/04/22 01:58:44;;;;;;;23.17;15.00;;;8.60;99.90;;;;;;5014590;28;20021;-73
2021/04/22 02:01:11;;;;;;;20.40;15.18;;;8.50;99.90;;;;;;5014403;28;20033;-74
2021/04/22 02:03:37;;;;;;;21.35;15.07;;;8.60;99.90;;;;;;5014358;28;20026;-73
2021/04/22 02:06:04;;;;;;;18.30;13.90;;;8.50;99.90;;;;;;5017924;28;20050;-73
2021/04/22 02:08:31;;;;;;;20.88;14.35;;;8.60;99.90;;;;;;5013050;28;20028;-74
2021/04/22 02:10:58;;;;;;;21.63;14.05;;;8.40;99.90;;;;;;5014336;28;20073;-73
2021/04/22 02:13:26;;;;;;;17.45;14.32;;;8.40;99.90;;;;;;5006221;28;20108;-73
2021/04/22 02:15:53;;;;;;;18.63;13.18;;;8.40;99.90;;;;;;5014429;28;20643;-73
2021/04/22 02:18:19;;;;;;;22.50;14.13;;;8.30;99.90;;;;;;5006228;28;20038;-73
2021/04/22 02:20:45;;;;;;;20.70;13.88;;;8.30;99.90;;;;;;5014072;28;20476;-73
2021/04/22 02:23:14;;;;;;;19.73;14.27;;;8.30;99.90;;;;;;5012678;28;20365;-74
2021/04/22 02:25:40;;;;;;;20.35;13.75;;;8.30;99.90;;;;;;5013887;28;20029;-74
2021/04/22 02:28:07;;;;;;;20.08;14.18;;;8.20;99.90;;;;;;5012904;28;20028;-74
2021/04/22 02:30:36;;;;;;;23.95;13.80;;;8.20;99.90;;;;;;5012640;28;20029;-74
2021/04/22 02:33:04;;;;;;;20.20;14.48;;;8.20;99.90;;;;;;5012788;28;20068;-74
2021/04/22 02:35:32;;;;;;;18.30;13.60;;;8.20;99.90;;;;;;5013464;28;20099;-73
2021/04/22 02:37:59;;;;;;;22.05;15.07;;;8.30;99.90;;;;;;5013660;28;20022;-73
2021/04/22 02:40:27;;;;;;;20.05;14.43;;;8.30;99.90;;;;;;5013662;28;20022;-74
2021/04/22 02:42:55;;;;;;;19.67;13.70;;;8.20;99.90;;;;;;5012496;28;20018;-73
2021/04/22 02:45:26;;;;;;;17.33;13.52;;;8.20;99.90;;;;;;5012242;28;20045;-73
2021/04/22 02:47:52;;;;;;;22.92;14.63;;;8.00;99.90;;;;;;5013872;28;20105;-72
2021/04/22 02:50:22;;;;;;;20.80;15.45;;;7.80;99.90;;;;;;5013574;28;20121;-71
2021/04/22 02:52:48;;;;;;;20.27;14.80;;;7.90;99.90;;;;;;5013270;28;20077;-73
2021/04/22 02:55:13;;;;;;;18.23;13.65;;;7.90;99.90;;;;;;5013323;28;20500;-74
2021/04/22 02:57:40;;;;;;;17.60;13.18;;;7.80;99.90;;;;;;5013461;28;20022;-73
2021/04/22 03:00:08;;;;;;;18.95;13.50;;;7.90;99.90;;;;;;5012251;28;20531;-73
2021/04/22 03:02:33;;;;;;;23.17;14.23;;;8.00;99.90;;;;;;5005425;28;20428;-72
2021/04/22 03:04:59;;;;;;;17.58;12.55;;;7.80;99.90;;;;;;5016647;28;20017;-72
2021/04/22 03:07:25;;;;;;;20.95;10.82;;;7.80;99.90;;;;;;5013085;28;20383;-73
2021/04/22 03:09:50;;;;;;;17.95;10.77;;;7.60;99.90;;;;;;5012018;28;20068;-71
2021/04/22 03:12:16;;;;;;;19.05;10.18;;;7.70;99.90;;;;;;4997342;28;20378;-72
2021/04/22 03:14:42;;;;;;;15.02;8.63;;;7.80;99.90;;;;;;5013084;28;20076;-74
2021/04/22 03:17:07;;;;;;;18.02;9.38;;;7.70;99.90;;;;;;5012105;28;20053;-73
2021/04/22 03:19:33;;;;;;;16.90;9.80;;;7.60;99.90;;;;;;5013254;28;20025;-72
2021/04/22 03:21:59;;;;;;;20.83;9.82;;;7.50;99.90;;;;;;5013081;28;20434;-73
2021/04/22 03:24:25;;;;;;;18.23;10.13;;;7.50;99.90;;;;;;4999494;28;20026;-74
2021/04/22 03:26:51;;;;;;;14.18;9.00;;;7.60;99.90;;;;;;5011711;28;20033;-74
2021/04/22 03:29:17;;;;;;;17.52;8.57;;;7.40;99.90;;;;;;5012935;28;20049;-74
2021/04/22 03:31:42;;;;;;;16.98;8.77;;;7.20;99.90;;;;;;5011989;28;20018;-76
2021/04/22 03:34:08;;;;;;;15.07;8.10;;;7.00;99.90;;;;;;5012669;28;20064;-74
2021/04/22 03:36:33;;;;;;;12.75;7.18;;;7.00;99.90;;;;;;5011646;28;20092;-76
2021/04/22 03:38:59;;;;;;;17.38;7.47;;;6.80;99.90;;;;;;5011497;28;20056;-76
2021/04/22 03:41:24;;;;;;;15.13;7.18;;;6.90;99.90;;;;;;5012637;28;20448;-75
2021/04/22 03:43:50;;;;;;;15.75;6.53;;;6.70;99.90;;;;;;5012837;28;20026;-74
2021/04/22 03:46:15;;;;;;;14.52;6.70;;;6.70;99.90;;;;;;5012866;28;20045;-74
2021/04/22 03:48:41;;;;;;;13.63;6.75;;;6.70;99.90;;;;;;5012678;28;20105;-75
2021/04/22 03:51:07;;;;;;;13.65;6.72;;;6.60;99.90;;;;;;5011283;28;20148;-75
2021/04/22 03:53:32;;;;;;;13.23;6.22;;;6.60;99.90;;;;;;5011127;28;21466;-74
2021/04/22 03:55:58;;;;;;;13.10;7.15;;;6.70;99.90;;;;;;5003492;28;20038;-75
2021/04/22 03:58:23;;;;;;;14.98;6.20;;;6.60;99.90;;;;;;5006283;28;20427;-74
2021/04/22 04:00:49;;;;;;;10.70;6.53;;;6.50;99.90;;;;;;5000168;28;20049;-73
2021/04/22 04:03:14;;;;;;;13.18;6.03;;;6.50;99.90;;;;;;5012403;28;20057;-74
2021/04/22 04:05:40;;;;;;;14.65;7.13;;;6.40;99.90;;;;;;5015319;28;20491;-74
2021/04/22 04:08:05;;;;;;;11.40;5.90;;;6.20;99.90;;;;;;5015138;28;20026;-75
2021/04/22 04:10:31;;;;;;;15.82;6.95;;;6.20;99.90;;;;;;5002055;28;20035;-76
2021/04/22 04:12:57;;;;;;;11.65;5.78;;;6.30;99.90;;;;;;5005690;28;20077;-75
2021/04/22 04:15:24;;;;;;;13.73;6.10;;;6.10;99.90;;;;;;5002800;28;20026;-75
2021/04/22 04:17:49;;;;;;;14.00;5.95;;;6.10;99.90;;;;;;5012492;28;20026;-75
2021/04/22 04:20:15;;;;;;;14.98;5.88;;;6.10;99.90;;;;;;5012826;28;20494;-76
2021/04/22 04:22:41;;;;;;;10.88;5.30;;;6.10;99.90;;;;;;5012017;28;20057;-76
2021/04/22 04:25:08;;;;;;;14.52;6.13;;;6.10;99.90;;;;;;5012017;28;20026;-74
2021/04/22 04:27:35;;;;;;;13.00;5.72;;;6.00;99.90;;;;;;5012545;28;20033;-73
2021/04/22 04:30:01;;;;;;;12.60;5.22;;;5.90;99.90;;;;;;5001423;28;20396;-73
2021/04/22 04:32:26;;;;;;;11.93;5.32;;;6.10;99.90;;;;;;5008976;28;20038;-73
2021/04/22 04:34:52;;;;;;;13.80;5.05;;;6.00;99.90;;;;;;5010538;28;20103;-73
2021/04/22 04:37:17;;;;;;;9.15;4.95;;;5.90;99.90;;;;;;5010600;28;20037;-74
2021/04/22 04:39:43;;;;;;;11.95;5.10;;;6.00;99.90;;;;;;5010686;28;20036;-74
2021/04/22 04:42:09;;;;;;;13.07;5.70;;;6.10;99.90;;;;;;5008277;28;20447;-75
2021/04/22 04:44:35;;;;;;;6.57;4.10;;;5.80;99.90;;;;;;5000672;28;20510;-75
2021/04/22 04:47:01;;;;;;;9.98;4.60;;;5.90;99.90;;;;;;5010545;28;20034;-74
2021/04/22 04:49:27;;;;;;;11.63;4.85;;;5.70;99.90;;;;;;5011890;28;20033;-76
2021/04/22 04:51:52;;;;;;;10.57;4.38;;;5.60;99.90;;;;;;5014279;28;20045;-74
2021/04/22 04:54:19;;;;;;;14.30;4.90;;;5.40;99.90;;;;;;5016654;28;20484;-74
2021/04/22 04:56:45;;;;;;;8.80;4.25;;;5.60;99.90;;;;;;5002491;28;20456;-75
2021/04/22 04:59:10;;;;;;;9.68;4.18;;;5.40;99.90;;;;;;5004543;28;20033;-73
2021/04/22 05:01:36;;;;;;;8.18;3.83;;;5.40;99.90;;;;;;5007237;28;20436;-73
2021/04/22 05:04:02;;;;;;;8.32;3.35;;;5.50;99.90;;;;;;5003318;28;20149;-74
2021/04/22 05:06:27;;;;;;;11.80;3.72;;;5.50;99.90;;;;;;5012380;28;20033;-74
2021/04/22 05:08:53;;;;;;;10.82;3.63;;;5.40;99.90;;;;;;5002227;28;20027;-73
2021/04/22 05:11:18;;;;;;;10.13;3.88;;;5.50;99.90;;;;;;5009209;28;20077;-74
2021/04/22 05:13:44;;;;;;;10.07;3.67;;;5.50;99.90;;;;;;5012061;28;20109;-73
2021/04/22 05:16:09;;;;;;;9.20;4.43;;;5.50;99.90;;;;;;5010288;28;20396;-72
2021/04/22 05:18:35;;;;;;;7.25;4.10;;;5.50;99.90;;;;;;5001660;28;20389;-69
2021/04/22 05:21:01;;;;;;;11.32;4.53;;;5.60;99.90;;;;;;5008175;28;20041;-72
2021/04/22 05:23:26;;;;;;;12.40;4.35;;;5.60;99.90;;;;;;5013088;28;20499;-73
2021/04/22 05:25:54;;;;;;;12.30;3.90;;;5.70;99.90;;;;;;5011785;28;20033;-74
2021/04/22 05:28:21;;;;;;;12.45;4.55;;;5.70;99.90;;;;;;5011651;28;20026;-73
2021/04/22 05:30:47;;;;;;;10.35;3.88;;;5.50;99.90;;;;;;5012746;28;20026;-70
2021/04/22 05:33:12;;;;;;;10.73;3.30;;;5.50;99.90;;;;;;5012606;28;20097;-73
2021/04/22 05:35:39;;;;;;;14.82;3.30;;;5.30;99.90;;;;;;5012265;28;20444;-73
2021/04/22 05:38:05;;;;;;;9.15;3.53;;;5.50;99.90;;;;;;5012001;28;20022;-73
2021/04/22 05:40:31;;;;;;;9.18;3.75;;;5.50;99.90;;;;;;4999420;28;20105;-73
2021/04/22 05:42:57;;;;;;;13.50;3.55;;;5.40;99.90;;;;;;5015739;28;20026;-73
2021/04/22 05:45:23;;;;;;;11.65;3.50;;;5.30;99.90;;;;;;5015112;28;20030;-73
2021/04/22 05:47:49;;;;;;;8.57;3.30;;;5.20;99.90;;;;;;5015099;28;20029;-73
2021/04/22 05:50:16;;;;;;;12.40;3.58;;;5.20;99.90;;;;;;5023572;28;20018;-73
2021/04/22 05:52:42;;;;;;;10.65;3.35;;;5.20;99.90;;;;;;5015150;28;20045;-72
2021/04/22 05:55:09;;;;;;;11.65;3.53;;;5.20;99.90;;;;;;5014718;28;20053;-73
2021/04/22 05:57:35;;;;;;;10.43;3.15;;;5.30;99.90;;;;;;5005115;28;20048;-73
2021/04/22 06:00:00;;;;;;;13.00;3.60;;;5.30;99.90;;;;;;5011888;28;20068;-73
2021/04/22 06:02:26;;;;;;;9.10;3.45;;;5.30;99.90;;;;;;5004908;28;20117;-73
2021/04/22 06:04:51;;;;;;;14.25;3.70;;;5.40;99.90;;;;;;5014823;28;20463;-72
2021/04/22 06:07:17;;;;;;;7.78;4.07;;;5.30;99.90;;;;;;5024253;28;20032;-72
2021/04/22 06:09:43;;;;;;;12.32;3.75;;;5.30;99.90;;;;;;5001548;28;20026;-73
2021/04/22 06:12:09;;;;;;;11.70;3.90;;;5.20;99.90;;;;;;5014732;28;20030;-73
2021/04/22 06:14:35;;;;;;;11.13;3.72;;;5.50;99.90;;;;;;5013344;28;20079;-73
2021/04/22 06:17:00;;;;;;;13.05;3.70;;;5.50;99.90;;;;;;5011944;28;20033;-73
2021/04/22 06:19:26;;;;;;;11.98;3.60;;;5.40;99.90;;;;;;5014081;28;20034;-72
2021/04/22 06:21:52;;;;;;;11.43;3.70;;;5.50;99.90;;;;;;5015099;28;20056;-73
2021/04/22 06:24:17;;;;;;;13.27;3.65;;;5.40;99.90;;;;;;5011735;28;20081;-73
2021/04/22 06:26:44;;;;;;;14.32;4.07;;;5.50;99.90;;;;;;5005083;28;20480;-73
2021/04/22 06:29:11;;;;;;;15.82;4.03;;;5.70;99.90;;;;;;5000266;28;20160;-73
2021/04/22 06:31:38;;;;;;;14.65;4.22;;;5.80;99.90;;;;;;5005931;28;20034;-73
2021/04/22 06:34:03;;;;;;;15.68;4.43;;;5.70;99.90;;;;;;5010692;28;20030;-73
2021/04/22 06:36:29;;;;;;;9.20;3.28;;;5.70;99.90;;;;;;5005214;28;20446;-73
2021/04/22 06:38:54;;;;;;;14.60;4.47;;;5.50;99.90;;;;;;5014514;28;20026;-73
2021/04/22 06:41:21;;;;;;;11.00;3.78;;;5.50;99.90;;;;;;5014324;28;20037;-73
2021/04/22 06:43:46;;;;;;;12.40;3.90;;;5.50;99.90;;;;;;5013375;28;20062;-74
2021/04/22 06:46:12;;;;;;;16.52;3.97;;;5.70;99.90;;;;;;5013210;28;20049;-73
2021/04/22 06:48:38;;;;;;;13.63;4.25;;;5.50;99.90;;;;;;5014368;28;20022;-74
2021/04/22 06:51:05;;;;;;;16.30;4.20;;;5.50;99.90;;;;;;5012806;28;20033;-73
2021/04/22 06:53:31;;;;;;;12.60;3.53;;;5.50;99.90;;;;;;5013673;28;20113;-73
2021/04/22 06:55:58;;;;;;;15.55;4.47;;;5.50;99.90;;;;;;5005303;28;20069;-73
2021/04/22 06:58:23;;;;;;;11.65;4.97;;;5.80;99.90;;;;;;5007765;28;20042;-73
2021/04/22 07:00:49;;;;;;;19.23;4.60;;;5.90;99.90;;;;;;5003858;28;20025;-74
2021/04/22 07:03:14;;;;;;;16.75;4.20;;;5.90;99.90;;;;;;5014899;28;20022;-73
2021/04/22 07:05:40;;;;;;;12.82;4.10;;;5.90;99.90;;;;;;5014318;28;20030;-73
2021/04/22 07:08:06;;;;;;;13.75;4.68;;;5.80;99.90;;;;;;5014397;28;20030;-73
2021/04/22 07:10:33;;;;;;;13.52;4.50;;;5.70;99.90;;;;;;5014322;28;20022;-74
2021/04/22 07:12:58;;;;;;;12.85;4.55;;;5.60;99.90;;;;;;5014540;28;20029;-74
2021/04/22 07:15:24;;;;;;;12.38;4.20;;;5.70;99.90;;;;;;5012949;28;20476;-76
2021/04/22 07:17:51;;;;;;;13.98;4.57;;;5.70;99.90;;;;;;5012359;28;20507;-74
2021/04/22 07:20:19;;;;;;;14.75;4.53;;;6.10;99.90;;;;;;5013406;28;20029;-73
2021/04/22 07:22:45;;;;;;;15.77;4.60;;;6.20;99.90;;;;;;5013151;28;20030;-72
2021/04/22 07:25:13;;;;;;;12.13;4.97;;;6.20;99.90;;;;;;5013097;28;20032;-72
2021/04/22 07:27:40;;;;;;;19.98;5.63;;;6.10;99.90;;;;;;4998899;28;20038;-73
2021/04/22 07:30:07;;;;;;;13.05;4.10;;;6.20;99.90;;;;;;5013440;28;20026;-72
2021/04/22 07:32:33;;;;;;;16.25;4.82;;;6.20;99.90;;;;;;5013378;28;20030;-69
2021/04/22 07:34:58;;;;;;;15.38;4.63;;;6.10;99.90;;;;;;5011820;28;20030;-73
2021/04/22 07:37:24;;;;;;;13.68;4.80;;;6.60;99.90;;;;;;5013223;28;20052;-73
2021/04/22 07:39:50;;;;;;;11.05;4.60;;;6.30;99.90;;;;;;5011829;28;20493;-74
2021/04/22 07:42:15;;;;;;;15.07;5.10;;;6.30;99.90;;;;;;5012686;28;20101;-73
2021/04/22 07:44:41;;;;;;;16.92;4.97;;;6.00;99.90;;;;;;5012707;28;20077;-73
2021/04/22 07:47:07;;;;;;;14.20;5.15;;;6.10;99.90;;;;;;5012493;28;20030;-73
2021/04/22 07:49:34;;;;;;;15.60;5.32;;;6.30;99.90;;;;;;5013621;28;20104;-73
2021/04/22 07:52:00;;;;;;;17.35;4.78;;;6.50;99.90;;;;;;5013367;28;20034;-73
2021/04/22 07:54:25;;;;;;;14.88;4.93;;;6.60;99.90;;;;;;5013752;28;20117;-73
2021/04/22 07:56:51;;;;;;;15.45;4.80;;;6.70;99.90;;;;;;5013554;28;20026;-73
2021/04/22 07:59:17;;;;;;;14.77;4.80;;;6.90;99.90;;;;;;5013593;28;20044;-73
2021/04/22 08:01:42;;;;;;;15.20;5.53;;;6.80;99.90;;;;;;5012016;28;20025;-73
2021/04/22 08:04:08;;;;;;;11.20;4.60;;;6.30;99.90;;;;;;5013238;28;20037;-73
2021/04/22 08:06:34;;;;;;;14.35;5.35;;;6.40;99.90;;;;;;5024855;28;20024;-73
2021/04/22 08:09:00;;;;;;;12.15;5.25;;;6.10;99.90;;;;;;5012975;28;20030;-73
2021/04/22 08:11:27;;;;;;;11.43;4.13;;;6.30;99.90;;;;;;5012574;28;20088;-73
2021/04/22 08:13:52;;;;;;;14.07;5.20;;;6.60;99.90;;;;;;5012383;28;20056;-73
2021/04/22 08:16:18;;;;;;;11.45;4.80;;;6.30;99.90;;;;;;5013138;28;20034;-73
2021/04/22 08:18:44;;;;;;;16.77;5.03;;;6.60;99.90;;;;;;5002369;28;20026;-73
2021/04/22 08:21:09;;;;;;;10.60;4.45;;;6.50;99.90;;;;;;5009266;28;20030;-73
2021/04/22 08:23:35;;;;;;;12.70;4.63;;;6.60;99.90;;;;;;5012156;28;20036;-73
2021/04/22 08:26:04;;;;;;;19.35;5.40;;;7.00;99.90;;;;;;5012655;28;20022;-73
2021/04/22 08:28:31;;;;;;;14.32;5.03;;;7.10;99.90;;;;;;5013277;28;20054;-71
2021/04/22 08:31:08;;;;;;;13.65;5.15;;;7.50;99.90;;;;;;5012832;28;20024;-73
2021/04/22 08:33:36;;;;;;;11.80;5.13;;;7.10;99.90;;;;;;5012161;28;20054;-73
2021/04/22 08:36:05;;;;;;;16.58;5.38;;;7.40;99.90;;;;;;5012716;28;20504;-73
2021/04/22 08:38:31;;;;;;;14.02;4.80;;;7.20;99.90;;;;;;5012480;28;20030;-73
2021/04/22 08:40:56;;;;;;;15.93;5.25;;;6.70;99.90;;;;;;5011721;28;20049;-74
2021/04/22 08:43:23;;;;;;;17.60;5.25;;;7.10;99.90;;;;;;5012982;28;20022;-73
2021/04/22 08:45:49;;;;;;;11.70;5.20;;;7.50;99.90;;;;;;5013360;28;20022;-74
2021/04/22 08:48:16;;;;;;;12.60;5.03;;;7.60;99.90;;;;;;5012775;28;20022;-75
2021/04/22 08:50:44;;;;;;;15.55;6.05;;;7.40;99.90;;;;;;5012991;28;20105;-75
2021/04/22 08:53:22;;;;;;;14.88;5.45;;;7.00;99.90;;;;;;5011336;28;20123;-73
2021/04/22 08:55:47;;;;;;;12.55;6.07;;;7.10;99.90;;;;;;5012614;28;20064;-74
2021/04/22 08:58:14;;;;;;;13.18;5.22;;;7.30;99.90;;;;;;5011485;28;20030;-75
2021/04/22 09:00:48;;;;;;;11.68;5.57;;;6.90;99.90;;;;;;5012713;28;20073;-74
2021/04/22 09:03:14;;;;;;;14.82;5.72;;;7.00;99.90;;;;;;5008124;28;20030;-74
2021/04/22 09:05:40;;;;;;;11.48;5.10;;;7.20;99.90;;;;;;5009695;28;20032;-73
2021/04/22 09:08:06;;;;;;;15.85;5.50;;;7.30;99.90;;;;;;5011282;28;20053;-73
2021/04/22 09:10:35;;;;;;;14.95;5.63;;;7.30;99.90;;;;;;5002315;28;20023;-73
2021/04/22 09:13:02;;;;;;;14.50;6.28;;;7.20;99.90;;;;;;5012071;28;20041;-75
2021/04/22 09:15:29;;;;;;;12.10;5.88;;;6.90;99.90;;;;;;5001420;28;20031;-73
2021/04/22 09:18:02;;;;;;;16.80;6.28;;;7.20;99.90;;;;;;5008484;28;20045;-73
2021/04/22 09:20:38;;;;;;;16.50;6.15;;;7.50;99.90;;;;;;5007998;28;20563;-73
2021/04/22 09:23:33;;;;;;;12.52;5.57;;;7.40;99.90;;;;;;5014515;28;20069;-73
2021/04/22 09:26:07;;;;;;;14.05;5.45;;;7.60;99.90;;;;;;5011039;28;20037;-71
2021/04/22 09:28:37;;;;;;;14.32;5.90;;;7.60;99.90;;;;;;5014594;28;20029;-74
2021/04/22 09:31:03;;;;;;;13.35;6.20;;;7.80;99.90;;;;;;5014100;28;20546;-73
2021/04/22 09:33:31;;;;;;;10.20;5.72;;;7.40;99.90;;;;;;5015274;28;20022;-72
2021/04/22 09:36:12;;;;;;;13.05;5.88;;;7.70;99.90;;;;;;5016161;28;20029;-77
2021/04/22 09:38:39;;;;;;;12.13;5.80;;;7.90;99.90;;;;;;4997896;28;20491;-74
2021/04/22 09:41:15;;;;;;;11.73;5.35;;;7.70;99.90;;;;;;5003843;28;20038;-74
2021/04/22 09:43:41;;;;;;;11.85;5.35;;;7.80;99.90;;;;;;5016564;28;20022;-74
2021/04/22 09:46:21;;;;;;;16.13;5.18;;;7.70;99.90;;;;;;5015281;28;20532;-74
2021/04/22 09:48:47;;;;;;;14.57;5.65;;;8.10;99.90;;;;;;5014092;28;20095;-75
2021/04/22 09:51:25;;;;;;;8.65;5.22;;;8.00;99.90;;;;;;5015539;28;20503;-75
2021/04/22 09:54:08;;;;;;;11.38;5.55;;;8.20;99.90;;;;;;5015593;28;20022;-75
2021/04/22 09:56:54;;;;;;;10.52;4.82;;;8.40;99.90;;;;;;5015828;28;20030;-75
2021/04/22 09:59:24;;;;;;;19.63;5.47;;;8.80;99.90;;;;;;5015918;28;20471;-73
2021/04/22 10:02:02;;;;;;;12.07;5.68;;;8.90;99.90;;;;;;5014401;28;20037;-74
2021/04/22 10:04:36;;;;;;;15.93;6.00;;;8.50;99.90;;;;;;5015446;28;20025;-74
2021/04/22 10:07:03;;;;;;;16.00;5.47;;;8.00;99.90;;;;;;5018846;28;20018;-75
2021/04/22 10:09:34;;;;;;;14.73;5.50;;;8.30;99.90;;;;;;5014564;28;20084;-75
2021/04/22 10:11:59;;;;;;;12.13;5.50;;;8.60;99.90;;;;;;5013878;28;20029;-75
2021/04/22 10:14:36;;;;;;;10.23;5.00;;;8.80;99.90;;;;;;5014428;28;20030;-75
2021/04/22 10:17:16;;;;;;;9.32;4.90;;;9.00;99.90;;;;;;5014738;28;20026;-74
2021/04/22 10:19:54;;;;;;;13.07;5.18;;;9.00;99.90;;;;;;5013466;28;20030;-74
2021/04/22 10:22:37;;;;;;;13.77;5.03;;;9.00;99.90;;;;;;5015624;28;20053;-74
2021/04/22 10:25:11;;;;;;;12.57;5.97;;;9.30;99.90;;;;;;5014777;28;20022;-74
2021/04/22 10:27:37;;;;;;;12.27;5.55;;;9.40;99.90;;;;;;5018831;28;20049;-73
2021/04/22 10:30:09;;;;;;;13.90;5.22;;;9.40;99.90;;;;;;5013366;28;20072;-74
2021/04/22 10:32:36;;;;;;;16.08;6.18;;;9.30;99.90;;;;;;5013400;28;20032;-74
2021/04/22 10:35:03;;;;;;;15.38;5.30;;;9.40;99.90;;;;;;5014550;28;20021;-74
2021/04/22 10:37:31;;;;;;;16.20;5.78;;;9.50;99.90;;;;;;5013378;28;20017;-73
2021/04/22 10:39:57;;;;;;;13.88;5.53;;;9.30;99.90;;;;;;5014470;28;20029;-74
2021/04/22 10:42:24;;;;;;;13.82;5.70;;;9.30;99.90;;;;;;5012399;28;20639;-75
2021/04/22 10:44:50;;;;;;;11.70;5.70;;;9.10;99.90;;;;;;5013690;28;20034;-73
2021/04/22 10:47:24;;;;;;;11.82;5.63;;;9.20;99.90;;;;;;5014340;28;20026;-75
2021/04/22 10:49:50;;;;;;;12.63;5.25;;;9.40;99.90;;;;;;5014665;28;20022;-69
2021/04/22 10:52:18;;;;;;;13.95;5.28;;;9.70;99.90;;;;;;5000700;28;20432;-70
2021/04/22 10:54:46;;;;;;;11.07;5.07;;;10.20;99.90;;;;;;5013889;28;20028;-70
2021/04/22 10:57:17;;;;;;;9.90;5.10;;;10.40;99.90;;;;;;5013824;28;20037;-73
2021/04/22 10:59:44;;;;;;;18.10;5.47;;;10.40;99.90;;;;;;5000862;28;20026;-74
2021/04/22 11:02:20;;;;;;;13.32;5.05;;;10.50;99.90;;;;;;5004341;28;20492;-72
2021/04/22 11:04:48;;;;;;;11.35;4.50;;;10.50;99.90;;;;;;5008693;28;20022;-72
2021/04/22 11:07:17;;;;;;;11.95;4.68;;;10.20;99.10;;;;;;5013553;28;20025;-72
2021/04/22 11:09:43;;;;;;;9.18;4.30;;;10.10;98.70;;;;;;5013518;28;20028;-72
2021/04/22 11:12:10;;;;;;;11.82;4.47;;;10.20;99.80;;;;;;5013365;28;20022;-72
2021/04/22 11:14:42;;;;;;;11.70;4.35;;;10.40;99.00;;;;;;5000058;28;20022;-73
2021/04/22 11:17:09;;;;;;;10.55;4.50;;;10.40;98.30;;;;;;5002232;28;20034;-73
2021/04/22 11:19:41;;;;;;;10.73;4.15;;;10.20;96.00;;;;;;5006720;28;20065;-72
2021/04/22 11:22:18;;;;;;;9.80;3.72;;;10.10;98.40;;;;;;5005021;28;20057;-72
2021/04/22 11:24:52;;;;;;;8.80;3.97;;;10.80;98.40;;;;;;4999200;28;20026;-72
2021/04/22 11:27:18;;;;;;;11.20;3.70;;;10.80;97.20;;;;;;5013071;28;20033;-72
2021/04/22 11:29:48;;;;;;;7.95;3.92;;;10.80;94.10;;;;;;5013105;28;20018;-72
2021/04/22 11:32:33;;;;;;;8.25;4.20;;;11.00;94.60;;;;;;5000030;28;20092;-73
2021/04/22 11:35:05;;;;;;;8.40;3.70;;;10.80;90.90;;;;;;5013570;28;20044;-71
2021/04/22 11:37:33;;;;;;;6.63;3.70;;;10.60;89.10;;;;;;5012996;28;20022;-71
2021/04/22 11:40:13;;;;;;;7.10;3.63;;;10.60;87.40;;;;;;5012983;28;20025;-71
2021/04/22 11:42:40;;;;;;;10.38;3.63;;;11.00;91.40;;;;;;5000457;28;20026;-73
2021/04/22 11:45:08;;;;;;;7.93;3.90;;;10.60;88.20;;;;;;5012884;28;20586;-74
2021/04/22 11:47:34;;;;;;;7.00;3.63;;;10.70;88.20;;;;;;5011510;28;20050;-73
2021/04/22 11:50:17;;;;;;;10.60;3.92;;;10.70;84.90;;;;;;5012822;28;20029;-74
2021/04/22 11:52:54;;;;;;;7.85;3.80;;;11.00;84.10;;;;;;5012701;28;20022;-74
2021/04/22 11:55:29;;;;;;;8.45;3.53;;;11.20;83.70;;;;;;5006252;28;20026;-73
2021/04/22 11:58:21;;;;;;;9.98;3.97;;;11.40;86.50;;;;;;5005748;28;20057;-73
2021/04/22 12:00:55;;;;;;;9.68;4.07;;;11.60;82.80;;;;;;5002222;28;20056;-72
2021/04/22 12:03:30;;;;;;;10.48;4.05;;;11.60;78.80;;;;;;5012484;28;20017;-73
2021/04/22 12:05:59;;;;;;;10.05;3.60;;;11.60;83.90;;;;;;5011207;28;20022;-73
2021/04/22 12:08:31;;;;;;;9.05;4.13;;;11.40;86.70;;;;;;5012718;28;20021;-73
2021/04/22 12:10:58;;;;;;;9.48;4.00;;;11.80;86.50;;;;;;5012439;28;20025;-73
2021/04/22 12:13:26;;;;;;;9.50;3.45;;;12.30;81.80;;;;;;5012563;28;20455;-72
2021/04/22 12:15:55;;;;;;;6.30;3.97;;;12.90;87.50;;;;;;5011736;28;20076;-72
2021/04/22 12:18:33;;;;;;;8.25;3.80;;;12.80;80.80;;;;;;5012313;28;20026;-73
2021/04/22 12:21:16;;;;;;;9.52;4.50;;;12.50;78.70;;;;;;5012314;28;20097;-73
2021/04/22 12:23:46;;;;;;;8.63;3.75;;;12.40;80.90;;;;;;5012019;28;20030;-72
2021/04/22 12:26:16;;;;;;;7.43;3.90;;;12.30;81.70;;;;;;4999277;28;20022;-73
2021/04/22 12:29:07;;;;;;;7.43;4.18;;;12.10;80.30;;;;;;5012340;28;20021;-72
2021/04/22 12:32:03;;;;;;;8.73;4.35;;;12.40;82.10;;;;;;5010840;28;20499;-72
2021/04/22 12:34:35;;;;;;;10.50;4.57;;;13.10;79.10;;;;;;4998989;28;20590;-72
2021/04/22 12:37:08;;;;;;;8.68;4.25;;;13.60;84.30;;;;;;5012213;28;20033;-72
2021/04/22 12:39:35;;;;;;;5.95;4.22;;;13.40;79.80;;;;;;5010937;28;20061;-71
2021/04/22 12:42:16;;;;;;;8.40;4.90;;;12.90;77.10;;;;;;5011919;28;20030;-72
2021/04/22 12:45:10;;;;;;;7.78;4.15;;;13.20;77.30;;;;;;5000758;28;20033;-72
2021/04/22 12:47:57;;;;;;;5.80;3.85;;;13.20;74.30;;;;;;4999783;28;20068;-72
2021/04/22 12:50:23;;;;;;;6.47;4.07;;;13.70;77.70;;;;;;5010853;28;20028;-72